Terminal Aerodrome Forecast
Issued by NWS Flagstaff, AZ

Home | Current Version | Previous Version | Text Only | Print | Product List | Glossary On
Versions: 1 2 3 4 5 6 7 8 9 10 11 12 13 14 15
000
FTUS45 KFGZ 232325
TAFFLG
TAF
KFLG 232325Z 2400/2424 22010KT P6SM VCSH BKN090
     FM240200 VRB05KT P6SM SCT090 PROB30 2420/2424 VRB10G20KT TSRA
      BKN090CB=

USA.gov is the U.S. government's official web portal to all federal, state and local government web resources and services.